Time;durP1;ratioP1;P1;durP2;ratioP2;P2;SDS_P1;SDS_P2;PMS_P1;PMS_P2;Temp;Humidity;BMP_temperature;BMP_pressure;BME280_temperature;BME280_humidity;BME280_pressure;Samples;Min_cycle;Max_cycle;Signal;HPM_P1;HPM_P2
2023/06/07 00:00:45;;;;;;;22.63;12.75;;;;;;;15.46;77.74;101901.47;5094082;28;20028;-59
2023/06/07 00:03:11;;;;;;;23.67;12.63;;;;;;;15.45;77.86;101895.06;5093718;28;20039;-58
2023/06/07 00:05:38;;;;;;;22.48;12.13;;;;;;;15.32;78.49;101888.38;5094370;28;20032;-58
2023/06/07 00:08:05;;;;;;;22.25;12.13;;;;;;;15.28;79.04;101902.13;5094316;28;20487;-59
2023/06/07 00:10:32;;;;;;;23.30;12.50;;;;;;;15.15;78.99;101893.78;5094188;28;20031;-58
2023/06/07 00:12:58;;;;;;;24.02;12.70;;;;;;;15.10;79.35;101901.16;5094279;28;20047;-57
2023/06/07 00:15:23;;;;;;;22.08;11.75;;;;;;;15.01;79.60;101907.75;5094207;28;20031;-58
2023/06/07 00:17:49;;;;;;;22.00;12.45;;;;;;;15.07;79.19;101904.53;5094439;28;20165;-59
2023/06/07 00:20:14;;;;;;;22.70;11.98;;;;;;;15.10;79.00;101908.66;5094020;28;20503;-59
2023/06/07 00:22:40;;;;;;;21.65;11.55;;;;;;;15.05;79.34;101917.97;5094211;28;20021;-58
2023/06/07 00:25:06;;;;;;;23.58;12.27;;;;;;;15.04;78.99;101912.69;5094270;28;20028;-58
2023/06/07 00:27:32;;;;;;;22.90;12.65;;;;;;;15.04;79.08;101902.38;5094058;28;20024;-58
2023/06/07 00:29:58;;;;;;;21.27;11.85;;;;;;;15.05;78.71;101906.00;5094084;28;20027;-58
2023/06/07 00:32:23;;;;;;;22.48;12.00;;;;;;;15.03;78.80;101908.25;5093888;28;20055;-58
2023/06/07 00:34:48;;;;;;;21.67;12.00;;;;;;;14.99;78.83;101896.91;5093909;28;20032;-58
2023/06/07 00:37:13;;;;;;;22.27;12.02;;;;;;;14.93;78.97;101903.72;5093600;28;20024;-59
2023/06/07 00:39:40;;;;;;;22.98;13.23;;;;;;;14.82;79.58;101906.72;5093856;28;20039;-58
2023/06/07 00:42:06;;;;;;;25.02;13.10;;;;;;;14.79;79.96;101904.56;5093536;28;20527;-58
2023/06/07 00:44:31;;;;;;;22.55;12.55;;;;;;;14.75;80.09;101905.47;5093657;28;20119;-58
2023/06/07 00:46:57;;;;;;;23.92;12.20;;;;;;;14.80;79.43;101899.78;5093188;28;20024;-58
2023/06/07 00:49:23;;;;;;;21.77;11.95;;;;;;;14.79;80.03;101896.19;5093545;28;20031;-58
2023/06/07 00:51:49;;;;;;;23.60;12.02;;;;;;;14.73;79.87;101902.16;5093826;28;20024;-58
2023/06/07 00:54:17;;;;;;;22.80;12.23;;;;;;;14.65;80.38;101901.72;5092833;28;20024;-58
2023/06/07 00:56:50;;;;;;;23.52;12.05;;;;;;;14.69;80.49;101898.38;5093623;28;20027;-58
2023/06/07 00:59:20;;;;;;;22.10;12.27;;;;;;;14.64;81.06;101905.66;5089274;28;20514;-58
2023/06/07 01:01:48;;;;;;;23.73;11.85;;;;;;;14.64;81.07;101904.84;5093546;28;20020;-57
2023/06/07 01:04:14;;;;;;;21.42;11.93;;;;;;;14.61;81.46;101895.13;5093328;28;20029;-57
2023/06/07 01:06:39;;;;;;;21.58;11.93;;;;;;;14.62;81.52;101899.56;5093281;28;20170;-57
2023/06/07 01:09:06;;;;;;;23.48;12.68;;;;;;;14.60;81.13;101896.25;5093105;28;20028;-57
2023/06/07 01:11:33;;;;;;;24.55;12.02;;;;;;;14.61;81.11;101897.91;5093167;28;20020;-57
2023/06/07 01:13:59;;;;;;;22.60;12.63;;;;;;;14.56;81.98;101892.44;5092604;28;20032;-58
2023/06/07 01:16:25;;;;;;;22.92;12.25;;;;;;;14.47;82.51;101895.09;5093154;28;20024;-57
2023/06/07 01:18:51;;;;;;;26.88;13.40;;;;;;;14.43;82.55;101902.44;5093074;28;20040;-57
2023/06/07 01:21:18;;;;;;;22.00;11.77;;;;;;;14.32;83.19;101900.97;5092775;28;20076;-57
2023/06/07 01:23:44;;;;;;;21.45;11.88;;;;;;;14.26;83.14;101903.00;5092538;28;20140;-57
2023/06/07 01:26:09;;;;;;;25.67;13.02;;;;;;;14.23;83.37;101900.00;5092591;28;20484;-57
2023/06/07 01:28:37;;;;;;;22.48;12.55;;;;;;;14.23;83.60;101895.25;5092790;28;20046;-57
2023/06/07 01:31:03;;;;;;;23.65;12.52;;;;;;;14.17;83.95;101888.13;5093163;28;20455;-57
2023/06/07 01:33:32;;;;;;;24.45;13.82;;;;;;;14.15;83.95;101882.03;5092857;28;20043;-57
2023/06/07 01:35:58;;;;;;;25.40;13.55;;;;;;;14.14;83.93;101886.81;5092507;28;20032;-57
2023/06/07 01:38:26;;;;;;;25.17;13.07;;;;;;;14.15;84.18;101882.88;5092775;28;20492;-57
2023/06/07 01:40:53;;;;;;;22.58;13.02;;;;;;;14.07;84.46;101889.16;5092489;28;20024;-57
2023/06/07 01:43:18;;;;;;;23.67;12.95;;;;;;;14.06;84.27;101886.66;5092522;28;20032;-57
2023/06/07 01:45:45;;;;;;;25.70;13.80;;;;;;;13.91;85.14;101896.09;5092535;28;20104;-60
2023/06/07 01:48:11;;;;;;;24.17;13.15;;;;;;;13.86;85.11;101888.66;5092587;28;20028;-57
2023/06/07 01:50:36;;;;;;;24.52;13.40;;;;;;;13.83;85.05;101886.50;5092596;28;20452;-57
2023/06/07 01:53:02;;;;;;;23.17;13.15;;;;;;;13.83;85.36;101881.75;5092696;28;20069;-57
2023/06/07 01:55:28;;;;;;;23.15;12.32;;;;;;;13.86;85.19;101888.66;5092485;28;20047;-57
2023/06/07 01:58:11;;;;;;;24.83;13.70;;;;;;;13.77;85.77;101885.75;5088879;28;20507;-57
2023/06/07 02:01:01;;;;;;;23.85;13.65;;;;;;;13.73;85.46;101873.56;5092375;28;20039;-57
2023/06/07 02:03:33;;;;;;;23.52;13.35;;;;;;;13.56;87.17;101874.94;5091874;28;20065;-58
2023/06/07 02:06:02;;;;;;;23.35;13.57;;;;;;;13.49;88.19;101877.28;5092356;28;20099;-58
2023/06/07 02:08:32;;;;;;;26.00;14.00;;;;;;;13.47;87.74;101873.13;5092391;28;20020;-57
2023/06/07 02:10:58;;;;;;;22.65;13.30;;;;;;;13.54;87.28;101876.38;5092259;28;20043;-57
2023/06/07 02:13:27;;;;;;;23.65;13.45;;;;;;;13.50;87.29;101881.72;5092402;28;20066;-57
2023/06/07 02:15:52;;;;;;;22.17;13.30;;;;;;;13.45;87.50;101878.19;5092299;28;20060;-57
2023/06/07 02:18:19;;;;;;;23.42;13.30;;;;;;;13.48;87.55;101883.13;5092321;28;20505;-57
2023/06/07 02:20:45;;;;;;;23.25;13.23;;;;;;;13.40;88.44;101882.66;5092047;28;20048;-57
2023/06/07 02:23:10;;;;;;;25.17;13.90;;;;;;;13.41;87.93;101878.78;5092271;28;20028;-57
2023/06/07 02:25:35;;;;;;;25.88;14.13;;;;;;;13.37;88.14;101874.09;5091977;28;20032;-58
2023/06/07 02:28:02;;;;;;;24.38;13.63;;;;;;;13.27;88.74;101875.88;5091963;28;20025;-58
2023/06/07 02:30:28;;;;;;;23.23;13.38;;;;;;;13.35;88.62;101884.66;5092096;28;20043;-57
2023/06/07 02:32:53;;;;;;;25.83;13.88;;;;;;;13.29;88.55;101880.31;5091899;28;20024;-57
2023/06/07 02:35:20;;;;;;;23.60;14.20;;;;;;;13.21;89.20;101879.03;5091959;28;20021;-57
2023/06/07 02:37:45;;;;;;;22.58;14.20;;;;;;;13.19;88.97;101878.50;5091957;28;20031;-57
2023/06/07 02:40:11;;;;;;;26.40;13.95;;;;;;;13.24;89.21;101878.44;5091879;28;20027;-58
2023/06/07 02:42:37;;;;;;;23.42;14.23;;;;;;;13.19;89.42;101882.13;5091731;28;20529;-57
2023/06/07 02:45:03;;;;;;;24.98;13.70;;;;;;;13.20;89.13;101880.16;5091773;28;20033;-57
2023/06/07 02:47:30;;;;;;;27.45;15.00;;;;;;;13.16;90.00;101870.78;5091862;28;20589;-57
2023/06/07 02:49:56;;;;;;;23.02;13.55;;;;;;;13.14;89.98;101879.38;5091896;28;20051;-57
2023/06/07 02:52:22;;;;;;;23.13;13.73;;;;;;;13.21;89.56;101884.56;5091444;28;20020;-57
2023/06/07 02:54:48;;;;;;;26.48;14.27;;;;;;;13.15;89.57;101883.00;5091922;28;20161;-57
2023/06/07 02:57:13;;;;;;;22.48;13.63;;;;;;;13.05;89.90;101884.78;5091731;28;20500;-57
2023/06/07 02:59:39;;;;;;;24.90;14.32;;;;;;;13.08;89.55;101878.63;5088503;28;20035;-57
2023/06/07 03:02:05;;;;;;;23.67;14.43;;;;;;;13.09;89.82;101882.25;5091706;28;20524;-57
2023/06/07 03:04:31;;;;;;;22.98;13.93;;;;;;;13.06;90.15;101891.16;5091559;28;20028;-57
2023/06/07 03:06:56;;;;;;;23.60;14.10;;;;;;;13.00;90.32;101884.84;5091662;28;20443;-57
2023/06/07 03:09:22;;;;;;;25.52;13.90;;;;;;;12.98;90.45;101883.50;5091690;28;20492;-57
2023/06/07 03:11:47;;;;;;;23.58;13.82;;;;;;;12.92;91.04;101888.28;5090942;28;20152;-59
2023/06/07 03:14:12;;;;;;;24.65;13.93;;;;;;;12.89;91.11;101889.72;5090581;28;20357;-57
2023/06/07 03:16:37;;;;;;;24.98;14.40;;;;;;;12.88;91.17;101890.81;5090885;28;20101;-57
2023/06/07 03:19:03;;;;;;;25.63;14.75;;;;;;;12.90;91.30;101893.31;5094038;28;20742;-56
2023/06/07 03:21:28;;;;;;;23.67;13.80;;;;;;;12.90;90.68;101899.69;5094859;28;20036;-57
2023/06/07 03:23:54;;;;;;;22.73;13.30;;;;;;;12.89;91.07;101883.34;5094257;28;20139;-57
2023/06/07 03:26:20;;;;;;;23.58;13.82;;;;;;;12.95;90.57;101880.19;5094863;28;20079;-58
2023/06/07 03:28:45;;;;;;;23.25;14.05;;;;;;;12.95;90.82;101891.28;5094011;28;20024;-57
2023/06/07 03:31:10;;;;;;;22.85;13.68;;;;;;;12.93;90.61;101885.22;5094851;28;20020;-57
2023/06/07 03:33:36;;;;;;;23.02;13.85;;;;;;;12.92;90.01;101886.34;5094514;28;20085;-57
2023/06/07 03:36:01;;;;;;;27.23;14.60;;;;;;;12.82;91.02;101886.47;5094708;28;20028;-57
2023/06/07 03:38:28;;;;;;;22.58;13.30;;;;;;;12.75;91.62;101891.56;5095078;28;20020;-57
2023/06/07 03:40:53;;;;;;;24.83;13.85;;;;;;;12.72;91.68;101901.28;5094937;28;20533;-57
2023/06/07 03:43:19;;;;;;;24.67;14.20;;;;;;;12.69;92.06;101906.59;5094796;28;20024;-57
2023/06/07 03:45:44;;;;;;;24.75;13.60;;;;;;;12.59;92.84;101908.38;5095076;28;20056;-57
2023/06/07 03:48:10;;;;;;;27.13;14.73;;;;;;;12.50;93.13;101899.03;5094411;28;20024;-57
2023/06/07 03:50:35;;;;;;;24.52;14.40;;;;;;;12.56;92.31;101905.34;5094474;28;20053;-57
2023/06/07 03:53:00;;;;;;;25.75;14.13;;;;;;;12.55;92.87;101898.16;5094604;28;20049;-57
2023/06/07 03:55:26;;;;;;;24.23;13.88;;;;;;;12.53;93.68;101900.38;5094616;28;20036;-57
2023/06/07 03:57:51;;;;;;;22.55;12.95;;;;;;;12.60;93.29;101907.25;5093484;28;20047;-56
2023/06/07 04:00:17;;;;;;;26.13;13.43;;;;;;;12.54;93.63;101897.34;5091865;28;20028;-58
2023/06/07 04:02:43;;;;;;;24.92;13.65;;;;;;;12.56;93.08;101897.88;5094514;28;20107;-58
2023/06/07 04:05:09;;;;;;;27.02;13.68;;;;;;;12.63;93.04;101897.50;5094254;28;20108;-58
2023/06/07 04:07:34;;;;;;;24.13;13.30;;;;;;;12.59;92.97;101897.25;5093954;28;20074;-58
2023/06/07 04:09:59;;;;;;;26.42;13.45;;;;;;;12.54;93.66;101890.94;5093911;28;20344;-57
2023/06/07 04:12:25;;;;;;;24.73;13.45;;;;;;;12.52;93.17;101887.63;5092634;28;20035;-57
2023/06/07 04:14:50;;;;;;;23.40;12.95;;;;;;;12.57;93.60;101891.16;5094323;28;20032;-58
2023/06/07 04:17:16;;;;;;;26.60;12.95;;;;;;;12.50;93.85;101898.22;5094208;28;20031;-59
2023/06/07 04:19:41;;;;;;;23.35;12.50;;;;;;;12.52;94.08;101895.94;5093995;28;20377;-59
2023/06/07 04:22:06;;;;;;;24.17;12.77;;;;;;;12.55;93.10;101893.44;5094265;28;20479;-58
2023/06/07 04:24:32;;;;;;;22.17;12.55;;;;;;;12.61;93.08;101897.00;5094104;28;20125;-58
2023/06/07 04:26:58;;;;;;;25.15;12.98;;;;;;;12.71;92.70;101902.41;5094260;28;20039;-58
2023/06/07 04:29:27;;;;;;;23.55;13.32;;;;;;;12.75;92.09;101894.34;5092939;28;20035;-58
2023/06/07 04:31:56;;;;;;;25.75;13.05;;;;;;;12.76;91.91;101895.97;5093894;28;20028;-58
2023/06/07 04:34:25;;;;;;;25.38;13.20;;;;;;;12.74;92.20;101899.03;5093900;28;20028;-59
2023/06/07 04:36:52;;;;;;;24.20;12.77;;;;;;;12.75;92.26;101920.13;5093648;28;20024;-58
2023/06/07 04:39:18;;;;;;;27.05;13.25;;;;;;;12.77;92.21;101925.38;5093649;28;20099;-59
2023/06/07 04:41:45;;;;;;;24.55;13.07;;;;;;;12.78;91.52;101914.00;5093563;28;20719;-59
2023/06/07 04:44:11;;;;;;;24.58;12.48;;;;;;;12.78;92.08;101913.16;5091913;28;20097;-57
2023/06/07 04:46:39;;;;;;;24.85;12.68;;;;;;;12.83;91.38;101912.28;5093602;28;20028;-58
2023/06/07 04:49:05;;;;;;;22.63;12.02;;;;;;;12.85;91.38;101910.03;5093738;28;20110;-57
2023/06/07 04:51:30;;;;;;;23.80;12.77;;;;;;;12.83;91.33;101915.91;5093672;28;20557;-57
2023/06/07 04:53:58;;;;;;;23.75;12.25;;;;;;;12.85;91.46;101915.59;5093441;28;20039;-57
2023/06/07 04:56:26;;;;;;;27.13;13.13;;;;;;;12.87;90.81;101913.34;5089654;28;20028;-57
2023/06/07 04:58:53;;;;;;;23.20;12.32;;;;;;;12.83;91.53;101918.66;5093313;28;20024;-58
2023/06/07 05:01:18;;;;;;;22.90;12.05;;;;;;;12.90;90.64;101904.41;5093339;28;20025;-57
2023/06/07 05:03:44;;;;;;;23.70;12.75;;;;;;;12.88;90.44;101904.72;5093194;28;20069;-58
2023/06/07 05:06:09;;;;;;;24.52;13.55;;;;;;;12.91;90.54;101901.34;5093163;28;20468;-58
2023/06/07 05:08:35;;;;;;;24.13;13.55;;;;;;;12.95;90.31;101907.94;5084008;28;20436;-57
2023/06/07 05:11:00;;;;;;;24.50;12.65;;;;;;;12.97;90.27;101904.91;5092777;28;20663;-58
2023/06/07 05:13:26;;;;;;;24.13;12.07;;;;;;;12.99;89.32;101910.16;5093120;28;20070;-57
2023/06/07 05:15:52;;;;;;;22.88;12.13;;;;;;;13.01;89.89;101924.56;5093074;28;20020;-58
2023/06/07 05:18:19;;;;;;;25.48;12.55;;;;;;;13.01;90.06;101919.84;5092524;28;20024;-58
2023/06/07 05:20:46;;;;;;;21.92;12.13;;;;;;;13.18;89.53;101913.78;5092811;28;20101;-57
2023/06/07 05:23:16;;;;;;;22.00;12.52;;;;;;;13.25;88.35;101913.44;5092282;28;20443;-57
2023/06/07 05:25:42;;;;;;;23.48;13.05;;;;;;;13.27;87.97;101906.44;5092785;28;20036;-57
2023/06/07 05:28:07;;;;;;;23.88;13.40;;;;;;;13.16;88.04;101918.00;5092887;28;20061;-57
2023/06/07 05:30:32;;;;;;;23.75;12.48;;;;;;;13.13;89.11;101916.63;5092762;28;20058;-58
2023/06/07 05:32:58;;;;;;;22.67;12.52;;;;;;;13.18;88.70;101912.94;5092701;28;20085;-61
2023/06/07 05:35:23;;;;;;;24.48;12.27;;;;;;;13.20;88.15;101911.56;5092584;28;20414;-58
2023/06/07 05:37:49;;;;;;;22.77;12.43;;;;;;;13.21;88.20;101918.75;5092674;28;20073;-57
2023/06/07 05:40:18;;;;;;;22.65;12.43;;;;;;;13.21;88.28;101913.22;5092461;28;20023;-57
2023/06/07 05:42:43;;;;;;;25.45;13.15;;;;;;;13.24;88.48;101917.34;5092425;28;20097;-57
2023/06/07 05:45:09;;;;;;;25.58;12.65;;;;;;;13.29;87.62;101908.09;5092596;28;20024;-57
2023/06/07 05:47:34;;;;;;;24.85;13.07;;;;;;;13.23;87.48;101910.94;5092467;28;20020;-58
2023/06/07 05:50:00;;;;;;;23.35;12.40;;;;;;;13.24;88.01;101909.81;5089773;28;20124;-57
2023/06/07 05:52:25;;;;;;;25.30;12.75;;;;;;;13.29;87.29;101908.09;5091884;28;20153;-58
2023/06/07 05:54:54;;;;;;;24.55;12.63;;;;;;;13.35;87.16;101918.00;5092466;28;20443;-58
2023/06/07 05:57:19;;;;;;;23.75;12.95;;;;;;;13.37;86.91;101919.38;5092259;28;20131;-58
2023/06/07 05:59:45;;;;;;;24.42;12.80;;;;;;;13.38;86.52;101923.00;5092383;28;20035;-57
2023/06/07 06:02:10;;;;;;;22.27;12.60;;;;;;;13.49;86.84;101924.53;5092193;28;20035;-58
2023/06/07 06:04:35;;;;;;;23.17;12.80;;;;;;;13.52;86.00;101928.66;5090910;28;20035;-57
2023/06/07 06:07:01;;;;;;;23.60;12.38;;;;;;;13.50;85.59;101933.69;5092311;28;20058;-58
2023/06/07 06:09:27;;;;;;;23.30;12.30;;;;;;;13.64;85.86;101936.56;5091731;28;20039;-58
2023/06/07 06:11:52;;;;;;;24.58;12.60;;;;;;;13.76;83.84;101941.66;5092186;28;20026;-57
2023/06/07 06:14:20;;;;;;;23.05;12.95;;;;;;;13.63;83.11;101938.50;5092210;28;20492;-57
2023/06/07 06:16:46;;;;;;;24.02;12.40;;;;;;;13.60;84.22;101936.31;5092440;28;20138;-58
2023/06/07 06:19:11;;;;;;;23.88;12.65;;;;;;;13.65;83.79;101935.44;5092056;28;20044;-58
2023/06/07 06:21:37;;;;;;;23.95;13.27;;;;;;;13.72;84.01;101939.50;5092251;28;20085;-58
2023/06/07 06:24:03;;;;;;;23.50;12.60;;;;;;;14.02;83.67;101934.59;5092068;28;20442;-58
2023/06/07 06:26:29;;;;;;;25.17;12.88;;;;;;;14.18;81.29;101935.13;5091903;28;20032;-59
2023/06/07 06:28:54;;;;;;;24.33;12.57;;;;;;;14.35;80.79;101937.34;5092179;28;20034;-58
2023/06/07 06:31:20;;;;;;;22.90;12.20;;;;;;;14.43;80.14;101927.50;5091813;28;20107;-59
2023/06/07 06:33:45;;;;;;;22.27;12.05;;;;;;;14.53;79.65;101942.34;5091686;28;20030;-59
2023/06/07 06:36:11;;;;;;;23.92;12.60;;;;;;;14.57;78.32;101944.22;5091809;28;20032;-59
2023/06/07 06:38:36;;;;;;;25.73;12.43;;;;;;;14.43;78.21;101946.13;5091817;28;20024;-59
2023/06/07 06:41:01;;;;;;;24.77;12.25;;;;;;;14.40;78.92;101947.56;5091695;28;20035;-58
2023/06/07 06:43:27;;;;;;;21.52;12.48;;;;;;;14.31;79.95;101949.41;5091712;28;20032;-58
2023/06/07 06:45:52;;;;;;;23.38;12.20;;;;;;;14.19;79.48;101952.69;5091717;28;20103;-59
2023/06/07 06:48:17;;;;;;;21.35;11.68;;;;;;;14.33;79.28;101947.16;5090216;28;20055;-58
2023/06/07 06:50:46;;;;;;;23.30;11.82;;;;;;;14.49;79.39;101948.53;5070936;28;20074;-58
2023/06/07 06:53:12;;;;;;;22.67;12.25;;;;;;;14.53;79.67;101948.75;5070726;28;20085;-57
2023/06/07 06:55:37;;;;;;;22.77;12.52;;;;;;;14.57;79.95;101952.56;5072673;28;20033;-58
2023/06/07 06:58:02;;;;;;;25.65;12.35;;;;;;;14.78;79.11;101966.16;5071979;28;20055;-58
2023/06/07 07:00:29;;;;;;;24.85;12.50;;;;;;;14.75;77.63;101962.00;5071893;28;20032;-58
2023/06/07 07:02:54;;;;;;;23.23;12.38;;;;;;;14.75;77.69;101967.56;5072183;28;20063;-58
2023/06/07 07:05:21;;;;;;;24.75;12.32;;;;;;;14.81;77.61;101973.88;5072842;28;20021;-58
2023/06/07 07:07:46;;;;;;;22.05;11.48;;;;;;;14.77;76.89;101982.03;5072757;28;20582;-59
2023/06/07 07:10:12;;;;;;;22.70;12.15;;;;;;;14.80;76.90;101975.84;5073274;28;20092;-58
2023/06/07 07:12:40;;;;;;;23.08;12.10;;;;;;;14.84;77.13;101976.06;5074052;28;20044;-58
2023/06/07 07:15:06;;;;;;;23.80;13.18;;;;;;;14.96;76.99;101979.19;5074091;28;20434;-58
2023/06/07 07:17:31;;;;;;;22.17;12.32;;;;;;;15.04;75.79;101976.78;5073922;28;20033;-58
2023/06/07 07:19:56;;;;;;;23.25;12.27;;;;;;;15.09;76.06;101968.31;5074196;28;20063;-59
2023/06/07 07:22:22;;;;;;;23.48;12.70;;;;;;;15.17;75.63;101967.59;5073740;28;20024;-58
2023/06/07 07:24:47;;;;;;;22.30;11.65;;;;;;;15.11;75.93;101971.63;5072286;28;20086;-58
2023/06/07 07:27:12;;;;;;;23.08;11.60;;;;;;;15.10;76.08;101973.59;5073246;28;20032;-58
2023/06/07 07:29:38;;;;;;;21.30;12.15;;;;;;;15.33;75.59;101965.31;5073492;28;20121;-58
2023/06/07 07:32:03;;;;;;;22.23;12.13;;;;;;;15.48;75.41;101971.72;5073307;28;20040;-58
2023/06/07 07:34:28;;;;;;;23.25;12.30;;;;;;;15.34;74.32;101968.94;5073321;28;20075;-58
2023/06/07 07:36:57;;;;;;;23.58;11.95;;;;;;;15.40;75.28;101981.63;5073227;28;20028;-58
2023/06/07 07:39:24;;;;;;;23.83;11.57;;;;;;;15.38;74.37;101976.38;5073456;28;20032;-58
2023/06/07 07:41:49;;;;;;;22.90;11.65;;;;;;;15.48;75.04;101963.34;5073194;28;20158;-58
2023/06/07 07:44:15;;;;;;;27.27;12.18;;;;;;;15.67;74.55;101968.78;5077056;28;20115;-58
2023/06/07 07:46:40;;;;;;;23.30;11.75;;;;;;;15.69;73.58;101975.69;5082774;28;20154;-57
2023/06/07 07:49:05;;;;;;;23.65;11.55;;;;;;;15.79;72.60;101977.44;5074025;28;20028;-57
2023/06/07 07:51:31;;;;;;;22.58;12.00;;;;;;;15.82;72.89;101978.75;5074151;28;20024;-58
2023/06/07 07:53:56;;;;;;;24.40;12.18;;;;;;;15.86;72.87;101993.78;5074108;28;20038;-58
2023/06/07 07:56:22;;;;;;;23.60;12.55;;;;;;;15.83;73.41;101992.38;5074237;28;20025;-58
2023/06/07 07:58:48;;;;;;;23.65;12.20;;;;;;;15.86;72.67;101994.59;5074154;28;20067;-57
2023/06/07 08:01:20;;;;;;;23.65;12.00;;;;;;;15.89;72.35;101988.38;5074000;28;20036;-58
2023/06/07 08:03:47;;;;;;;23.38;11.65;;;;;;;16.11;71.73;101981.16;5073811;28;20055;-58
2023/06/07 08:06:12;;;;;;;25.67;12.32;;;;;;;16.43;70.65;101981.25;5072654;28;20437;-58
2023/06/07 08:08:38;;;;;;;23.48;11.40;;;;;;;16.77;69.42;101972.22;5073816;28;20028;-58
2023/06/07 08:11:03;;;;;;;25.85;11.85;;;;;;;16.86;67.88;101975.06;5073832;28;20028;-58
2023/06/07 08:13:28;;;;;;;23.65;11.30;;;;;;;17.12;67.54;101966.81;5073691;28;20025;-58
2023/06/07 08:15:54;;;;;;;21.10;11.13;;;;;;;17.35;66.76;101979.88;5073727;28;20032;-57
2023/06/07 08:18:19;;;;;;;22.65;12.00;;;;;;;17.50;65.86;101976.59;5073675;28;20060;-58
2023/06/07 08:20:45;;;;;;;22.85;11.30;;;;;;;17.58;64.31;101989.78;5074115;28;20052;-58
2023/06/07 08:23:10;;;;;;;21.02;10.93;;;;;;;17.61;63.67;101986.34;5073514;28;20024;-57
2023/06/07 08:25:36;;;;;;;23.30;11.07;;;;;;;17.27;64.98;101985.13;5073630;28;20024;-58
2023/06/07 08:28:02;;;;;;;22.83;11.25;;;;;;;17.28;66.07;101983.97;5073654;28;20032;-58
2023/06/07 08:30:27;;;;;;;21.98;11.00;;;;;;;17.51;65.42;101980.25;5073456;28;20030;-58
2023/06/07 08:32:53;;;;;;;21.20;11.27;;;;;;;17.64;65.64;101975.66;5073445;28;20025;-58
2023/06/07 08:35:18;;;;;;;24.02;11.77;;;;;;;17.76;64.95;101984.22;5073350;28;20086;-58
2023/06/07 08:37:43;;;;;;;24.02;12.10;;;;;;;17.94;64.33;101971.06;5073271;28;20384;-58
2023/06/07 08:40:10;;;;;;;23.77;12.88;;;;;;;17.97;63.34;101978.00;5073308;28;20025;-58
2023/06/07 08:42:38;;;;;;;22.02;11.30;;;;;;;17.94;63.72;101959.84;5073410;28;20032;-60
2023/06/07 08:45:03;;;;;;;23.88;11.32;;;;;;;18.04;62.73;101967.97;5073158;28;20021;-59
2023/06/07 08:47:30;;;;;;;21.00;11.40;;;;;;;18.05;63.36;101965.97;5073132;28;20123;-58
2023/06/07 08:49:56;;;;;;;23.00;11.07;;;;;;;17.99;62.88;101975.69;5073135;28;20036;-58
2023/06/07 08:52:24;;;;;;;22.65;11.18;;;;;;;17.98;63.34;101980.50;5073035;28;20028;-58
2023/06/07 08:54:50;;;;;;;21.85;11.65;;;;;;;18.17;63.30;101970.91;5073162;28;20070;-57
2023/06/07 08:57:18;;;;;;;23.48;10.93;;;;;;;18.47;62.56;101973.81;5072850;28;20040;-59
2023/06/07 08:59:45;;;;;;;22.92;11.02;;;;;;;18.54;61.70;101974.97;5072809;28;20496;-59
2023/06/07 09:02:12;;;;;;;22.10;11.45;;;;;;;18.54;61.59;101971.34;5072840;28;20056;-58
2023/06/07 09:04:39;;;;;;;23.10;11.20;;;;;;;18.78;62.17;101981.16;5072562;28;20025;-59
2023/06/07 09:07:06;;;;;;;23.08;11.45;;;;;;;19.06;60.56;101977.94;5076688;28;20020;-59
2023/06/07 09:09:31;;;;;;;21.88;10.57;;;;;;;19.37;60.26;101988.03;5093159;28;20466;-60
2023/06/07 09:11:57;;;;;;;23.20;11.93;;;;;;;19.44;59.49;101980.72;5093045;28;20492;-60
2023/06/07 09:14:22;;;;;;;22.73;11.73;;;;;;;19.49;58.84;101976.91;5092535;28;20046;-59
2023/06/07 09:16:56;;;;;;;23.00;11.68;;;;;;;19.44;59.23;101979.88;5092792;28;20421;-59
2023/06/07 09:19:42;;;;;;;22.42;11.85;;;;;;;19.65;59.54;101985.50;5092700;28;20056;-58
2023/06/07 09:22:10;;;;;;;21.92;12.32;;;;;;;19.95;58.49;101977.91;5092708;28;20028;-60
2023/06/07 09:24:37;;;;;;;25.85;12.23;;;;;;;20.19;57.03;101981.16;5092751;28;20036;-59
2023/06/07 09:27:03;;;;;;;24.25;12.25;;;;;;;19.78;57.79;101975.22;5092613;28;20032;-60
2023/06/07 09:29:29;;;;;;;22.13;12.30;;;;;;;19.41;57.94;101984.19;5092510;28;20055;-59
2023/06/07 09:31:59;;;;;;;22.25;11.98;;;;;;;19.46;58.86;101975.56;5092566;28;20024;-59
2023/06/07 09:34:26;;;;;;;23.77;11.93;;;;;;;19.51;57.90;101974.56;5092441;28;20028;-59
2023/06/07 09:36:58;;;;;;;21.77;12.25;;;;;;;19.48;58.70;101976.06;5092338;28;20377;-59
2023/06/07 09:39:26;;;;;;;23.48;12.13;;;;;;;19.36;58.37;101976.00;5092253;28;20086;-59
2023/06/07 09:41:55;;;;;;;22.17;11.85;;;;;;;19.37;59.09;101976.81;5092204;28;20021;-58
2023/06/07 09:44:28;;;;;;;23.75;12.63;;;;;;;19.32;59.42;101983.44;5092022;28;20031;-58
2023/06/07 09:46:58;;;;;;;23.83;12.63;;;;;;;19.35;59.07;101979.13;5092326;28;20035;-58
2023/06/07 09:49:31;;;;;;;23.23;12.90;;;;;;;19.36;59.01;101972.34;5092120;28;20024;-58
2023/06/07 09:51:57;;;;;;;23.40;12.38;;;;;;;19.26;59.61;101970.78;5092598;28;20137;-59
2023/06/07 09:54:42;;;;;;;23.95;13.18;;;;;;;19.27;59.79;101972.41;5092234;28;20024;-58
2023/06/07 09:57:09;;;;;;;20.67;12.18;;;;;;;19.34;59.58;101975.50;5092236;28;20039;-59
2023/06/07 09:59:37;;;;;;;25.50;12.55;;;;;;;19.53;59.31;101968.63;5090846;28;20387;-58
2023/06/07 10:02:21;;;;;;;24.52;12.35;;;;;;;19.82;58.60;101970.53;5091930;28;20177;-58
2023/06/07 10:04:47;;;;;;;24.30;13.10;;;;;;;19.85;57.91;101978.31;5091941;28;20040;-59
2023/06/07 10:07:13;;;;;;;22.65;12.50;;;;;;;19.73;58.25;101967.81;5091982;28;20081;-58
2023/06/07 10:09:39;;;;;;;23.42;12.10;;;;;;;19.90;58.38;101968.88;5091695;28;20024;-58
2023/06/07 10:12:07;;;;;;;24.88;12.20;;;;;;;19.84;58.93;101964.59;5091860;28;20107;-58
2023/06/07 10:14:34;;;;;;;22.83;12.30;;;;;;;19.98;58.40;101965.16;5092039;28;20457;-58
2023/06/07 10:17:07;;;;;;;25.23;12.70;;;;;;;19.98;58.59;101959.53;5091747;28;20024;-59
2023/06/07 10:19:46;;;;;;;23.27;12.57;;;;;;;20.05;58.26;101962.59;5089388;28;20059;-59
2023/06/07 10:22:16;;;;;;;22.20;11.90;;;;;;;20.05;58.35;101965.41;5090726;28;20043;-59
2023/06/07 10:25:04;;;;;;;25.77;13.00;;;;;;;20.02;58.86;101965.28;5090617;28;20028;-58
2023/06/07 10:27:38;;;;;;;23.00;12.55;;;;;;;20.05;58.44;101964.59;5092395;28;20031;-58
2023/06/07 10:30:13;;;;;;;21.58;12.25;;;;;;;19.74;58.81;101966.63;5094776;28;20024;-57
2023/06/07 10:32:39;;;;;;;24.00;12.73;;;;;;;19.51;59.22;101963.31;5094832;28;20036;-57
2023/06/07 10:35:10;;;;;;;25.23;12.85;;;;;;;19.59;59.09;101947.59;5090983;28;20028;-57
2023/06/07 10:37:40;;;;;;;22.27;11.82;;;;;;;19.78;59.18;101947.94;5093439;28;20559;-58
2023/06/07 10:40:10;;;;;;;24.17;12.40;;;;;;;19.95;59.04;101951.78;5094192;28;20649;-57
2023/06/07 10:42:37;;;;;;;23.67;11.98;;;;;;;20.09;57.43;101955.16;5094272;28;20031;-57
2023/06/07 10:45:04;;;;;;;22.17;11.77;;;;;;;20.14;56.07;101950.47;5094392;28;20153;-57
2023/06/07 10:47:30;;;;;;;22.38;11.27;;;;;;;20.09;57.03;101941.09;5094346;28;20063;-57
2023/06/07 10:49:56;;;;;;;22.33;12.00;;;;;;;20.33;56.40;101952.78;5094609;28;20106;-58
2023/06/07 10:52:28;;;;;;;23.95;12.18;;;;;;;20.33;56.60;101947.16;5110867;28;20027;-57
2023/06/07 10:54:54;;;;;;;22.42;11.40;;;;;;;20.40;57.40;101948.22;5114640;28;20106;-59
2023/06/07 10:57:37;;;;;;;23.60;11.55;;;;;;;20.52;57.28;101939.00;5114580;28;20125;-58
2023/06/07 11:00:32;;;;;;;21.77;11.48;;;;;;;20.67;57.08;101945.94;5113081;28;20830;-58
2023/06/07 11:03:09;;;;;;;24.40;12.43;;;;;;;20.68;56.96;101947.59;5114452;28;20026;-58
2023/06/07 11:05:58;;;;;;;22.95;12.43;;;;;;;20.69;56.71;101942.78;5114508;28;20069;-58
2023/06/07 11:08:31;;;;;;;21.63;12.27;;;;;;;20.68;56.43;101943.94;5114792;28;20113;-59